Tuesday, October 17, 2017, 2:41 PM EDT
Back to Local

KMUI, Muir Army Air Field / Indiantown

Location: Jonestown, PA, United States Lat: 40.433
Local Time: 2:41 PM EDT (18:41 GMT) Lon: -76.567
Time Zone: US/Eastern Elev: 488 ft

Show me the last for .
Show Decoded

2017-10-17 13:58 METAR KMUI 171758Z AUTO 23003KT 10SM CLR 15/M01 A3029 RMK AO2 SLPNO T01511012
                 10153 20019 =
2017-10-17 12:58 METAR KMUI 171658Z AUTO 19006KT 10SM CLR 14/01 A3032 RMK AO2 SLPNO T01360008 =
2017-10-17 11:58 METAR KMUI 171558Z AUTO 00000KT 10SM CLR 12/02 A3035 RMK AO2 SLPNO T01200015 =
2017-10-17 10:58 METAR KMUI 171458Z AUTO 13003KT 10SM CLR 10/01 A3036 RMK AO2 SLP286 T01020014
                 50005 =
2017-10-17 07:58 METAR KMUI 171158Z COR AUTO 00000KT 10SM CLR 02/02 A3035 RMK AO2 SLP283
                 T00170016 10044 20007 52014 COR 1201 =
2017-10-17 06:58 METAR KMUI 171058Z AUTO 00000KT 10SM CLR 01/01 A3034 RMK AO2 SLP280 T00100009 =
2017-10-17 05:58 METAR KMUI 170958Z AUTO 00000KT 10SM CLR 02/02 A3032 RMK AO2 SLP272 T00190017 =
2017-10-17 04:58 METAR KMUI 170858Z AUTO 00000KT 10SM CLR 02/02 A3030 RMK AO2 SLP265 T00210015 =
2017-10-17 03:59 METAR KMUI 170759Z AUTO 00000KT 10SM CLR 02/02 A3028 RMK AO2 SLP259 T00240020 =
2017-10-17 02:58 METAR KMUI 170658Z AUTO 00000KT 10SM CLR 04/02 A3028 RMK AO2 SLP259 T00360021 =
2017-10-17 01:58 METAR KMUI 170558Z AUTO 34003KT 10SM CLR 04/03 A3027 RMK AO2 SLP255 T00360025
                 10122 20036 52007 =
2017-10-17 00:58 METAR KMUI 170458Z AUTO 00000KT 10SM CLR 06/02 A3027 RMK AO2 SLP255 T00590021
                 401750059 =
2017-10-16 23:58 METAR KMUI 170358Z AUTO 09004KT 10SM CLR 08/00 A3026 RMK AO2 SLP251 T00790004 =
2017-10-16 22:58 METAR KMUI 170258Z AUTO 35005KT 10SM CLR 09/01 A3025 RMK AO2 SLPNO T00850006
                 52026 =
2017-10-16 21:58 METAR KMUI 170158Z AUTO 36007KT 10SM CLR 09/M01 A3023 RMK AO2 SLP241 T00901009 =
2017-10-16 20:58 METAR KMUI 170058Z 36004KT 10SM CLR 12/M02 A3020 RMK AO2A SLP230 T01191022 =
2017-10-16 19:58 METAR KMUI 162358Z 30003KT 10SM CLR 12/M01 A3017 RMK AO2A SLP220 T01221014 10159
                 20120 52022 =
2017-10-16 18:58 METAR KMUI 162258Z 32004KT 10SM CLR 13/M01 A3014 RMK AO2A SLP209 T01331011 =
2017-10-16 18:20 METAR KMUI 162220Z COR AUTO 32003KT 10SM FEW060 FEW200 14/00 A3013 RMK AO2A
                 SLP206 COR 2221 =
2017-10-16 17:58 METAR KMUI 162158Z AUTO 30003KT 5SM HZ CLR 15/01 A3012 RMK AO2 SLP202 T01470005
                 =
2017-10-16 16:58 METAR KMUI 162058Z AUTO 34006KT 10SM CLR 15/01 A3011 RMK AO2 SLP198 T01530013
                 53006 =
2017-10-16 15:58 METAR KMUI 161958Z AUTO 29005G19KT 10SM FEW060 16/01 A3010 RMK AO2 SLP195
                 T01550011 =
2017-10-16 14:58 METAR KMUI 161858Z AUTO 34010G20KT 10SM CLR 15/02 A3009 RMK AO2 SLP192 T01510019
                 =

Support USWX by starting your Amazon purchase here.